Time;durP1;ratioP1;P1;durP2;ratioP2;P2;SDS_P1;SDS_P2;PMS_P1;PMS_P2;Temp;Humidity;BMP_temperature;BMP_pressure;BME280_temperature;BME280_humidity;BME280_pressure;Samples;Min_cycle;Max_cycle;Signal;HPM_P1;HPM_P2
2023/06/10 00:01:43;;;;;;;8.35;3.65;;;17.60;99.90;;;;;;4960072;28;20582;-68
2023/06/10 00:04:08;;;;;;;7.53;3.40;;;17.60;99.90;;;;;;4958874;28;20736;-68
2023/06/10 00:06:37;;;;;;;8.38;4.18;;;17.60;99.90;;;;;;4962364;28;20125;-68
2023/06/10 00:09:13;;;;;;;8.98;3.88;;;17.60;99.90;;;;;;4941788;28;20047;-68
2023/06/10 00:11:40;;;;;;;5.88;3.40;;;17.60;99.90;;;;;;4961017;28;20042;-68
2023/06/10 00:14:05;;;;;;;7.57;2.97;;;17.60;99.90;;;;;;4964214;28;20051;-68
2023/06/10 00:16:31;;;;;;;7.38;3.17;;;17.50;99.90;;;;;;4962014;28;20077;-68
2023/06/10 00:19:00;;;;;;;8.40;2.72;;;17.50;99.90;;;;;;4958762;28;20162;-68
2023/06/10 00:21:27;;;;;;;9.98;3.28;;;17.50;99.90;;;;;;4958333;28;20196;-68
2023/06/10 00:23:55;;;;;;;7.82;3.50;;;17.50;99.90;;;;;;4962846;28;20039;-69
2023/06/10 00:26:21;;;;;;;7.47;4.05;;;17.40;99.90;;;;;;5023664;23;20051;-72
2023/06/10 00:28:47;;;;;;;6.75;3.72;;;17.40;99.90;;;;;;4953627;28;20062;-72
2023/06/10 00:31:17;;;;;;;9.35;3.10;;;17.40;99.90;;;;;;4975468;28;20112;-72
2023/06/10 00:33:42;;;;;;;9.45;3.70;;;17.30;99.90;;;;;;4982290;28;20073;-72
2023/06/10 00:36:08;;;;;;;8.00;3.70;;;17.40;99.90;;;;;;4980293;28;20060;-73
2023/06/10 00:38:34;;;;;;;7.13;3.35;;;17.30;99.90;;;;;;4969385;28;20146;-72
2023/06/10 00:41:00;;;;;;;6.30;3.42;;;17.30;99.90;;;;;;4981722;28;20049;-72
2023/06/10 00:43:25;;;;;;;7.75;3.05;;;17.30;99.90;;;;;;4972868;28;20085;-71
2023/06/10 00:45:52;;;;;;;6.40;3.03;;;17.30;99.90;;;;;;4964282;28;20047;-72
2023/06/10 00:48:20;;;;;;;7.80;3.33;;;17.30;99.90;;;;;;4961013;28;20552;-72
2023/06/10 00:50:47;;;;;;;8.38;3.58;;;17.30;99.90;;;;;;4980043;28;20191;-72
2023/06/10 00:53:13;;;;;;;9.05;3.45;;;17.20;99.90;;;;;;4945147;28;20073;-72
2023/06/10 00:55:38;;;;;;;;;;;17.20;99.90;;;;;;4962999;28;20511;-72
2023/06/10 00:58:04;;;;;;;8.73;3.13;;;17.20;99.90;;;;;;4981408;28;19917;-72
2023/06/10 01:00:30;;;;;;;10.95;3.58;;;17.20;99.90;;;;;;4980121;28;20146;-72
2023/06/10 01:02:55;;;;;;;8.30;3.30;;;17.10;99.90;;;;;;4978301;28;20060;-72
2023/06/10 01:05:23;;;;;;;6.25;3.55;;;17.10;99.90;;;;;;4974819;28;20104;-73
2023/06/10 01:08:18;;;;;;;5.88;3.30;;;17.00;99.90;;;;;;4963393;28;20051;-72
2023/06/10 01:10:55;;;;;;;10.60;3.67;;;17.10;99.90;;;;;;4960292;28;20137;-72
2023/06/10 01:13:23;;;;;;;7.18;3.17;;;17.00;99.90;;;;;;4990112;28;20053;-72
2023/06/10 01:15:51;;;;;;;5.82;3.10;;;17.00;99.90;;;;;;4978382;28;20121;-72
2023/06/10 01:18:17;;;;;;;6.63;3.45;;;17.00;99.90;;;;;;4964978;28;20249;-72
2023/06/10 01:20:44;;;;;;;6.18;2.75;;;16.90;99.90;;;;;;4978483;28;20046;-73
2023/06/10 01:23:12;;;;;;;6.82;3.42;;;16.90;99.90;;;;;;4968264;28;20045;-72
2023/06/10 01:25:45;;;;;;;6.85;3.72;;;16.80;99.90;;;;;;4965879;28;20048;-72
2023/06/10 01:28:43;;;;;;;9.32;3.33;;;16.90;99.90;;;;;;4979871;28;20050;-72
2023/06/10 01:31:36;;;;;;;8.65;3.42;;;16.80;99.90;;;;;;4948867;28;20042;-73
2023/06/10 01:34:04;;;;;;;10.43;3.58;;;16.80;99.90;;;;;;4964506;28;20061;-72
2023/06/10 01:36:34;;;;;;;8.13;3.50;;;16.80;99.90;;;;;;4978500;28;20053;-72
2023/06/10 01:39:01;;;;;;;8.38;3.75;;;16.80;99.90;;;;;;4979065;28;20496;-72
2023/06/10 01:41:28;;;;;;;6.30;2.95;;;16.70;99.90;;;;;;4984279;28;20042;-73
2023/06/10 01:43:54;;;;;;;7.53;3.00;;;16.70;99.90;;;;;;4965095;28;20244;-73
2023/06/10 01:46:21;;;;;;;7.72;3.40;;;16.70;99.90;;;;;;4955164;28;20192;-72
2023/06/10 01:48:46;;;;;;;;;;;16.70;99.90;;;;;;4976548;28;20121;-72
2023/06/10 01:51:12;;;;;;;9.82;3.35;;;16.70;99.90;;;;;;4994421;28;20008;-72
2023/06/10 01:53:38;;;;;;;8.60;4.28;;;16.60;99.90;;;;;;4975525;28;20556;-72
2023/06/10 01:56:04;;;;;;;6.20;3.13;;;16.60;99.90;;;;;;4978909;28;20479;-72
2023/06/10 01:58:32;;;;;;;11.07;4.10;;;16.60;99.90;;;;;;4967439;28;20054;-72
2023/06/10 02:01:00;;;;;;;10.00;3.80;;;16.60;99.90;;;;;;4965661;28;20050;-72
2023/06/10 02:03:25;;;;;;;8.90;4.18;;;16.60;99.90;;;;;;4978852;28;20066;-72
2023/06/10 02:05:51;;;;;;;7.53;3.42;;;16.60;99.90;;;;;;4982502;28;20147;-72
2023/06/10 02:08:16;;;;;;;7.38;3.88;;;16.60;99.90;;;;;;4962760;28;20043;-73
2023/06/10 02:10:42;;;;;;;9.82;4.53;;;16.50;99.90;;;;;;4965151;28;20225;-72
2023/06/10 02:13:08;;;;;;;5.72;3.65;;;16.50;99.90;;;;;;4978726;28;20144;-72
2023/06/10 02:15:33;;;;;;;9.57;4.18;;;16.50;99.90;;;;;;4975333;28;20184;-72
2023/06/10 02:18:00;;;;;;;7.75;3.97;;;16.40;99.90;;;;;;4976183;28;20562;-72
2023/06/10 02:20:28;;;;;;;6.47;3.58;;;16.40;99.90;;;;;;4980879;28;20038;-72
2023/06/10 02:22:54;;;;;;;5.38;3.80;;;16.40;99.90;;;;;;4963780;28;20057;-73
2023/06/10 02:25:19;;;;;;;8.53;3.97;;;16.40;99.90;;;;;;4979884;28;20140;-72
2023/06/10 02:27:45;;;;;;;11.27;4.13;;;16.30;99.90;;;;;;4957243;28;20304;-72
2023/06/10 02:30:11;;;;;;;9.65;4.22;;;16.30;99.90;;;;;;4959879;28;20046;-73
2023/06/10 02:32:37;;;;;;;;;;;16.30;99.90;;;;;;4984461;28;20145;-72
2023/06/10 02:35:03;;;;;;;8.48;4.10;;;16.30;99.90;;;;;;4995328;28;20295;-72
2023/06/10 02:37:28;;;;;;;10.07;3.97;;;16.20;99.90;;;;;;4963312;28;20062;-71
2023/06/10 02:39:54;;;;;;;10.10;4.43;;;16.20;99.90;;;;;;4966750;28;20054;-72
2023/06/10 02:42:20;;;;;;;9.40;4.63;;;16.20;99.90;;;;;;4977644;28;20323;-72
2023/06/10 02:44:45;;;;;;;7.78;4.22;;;16.20;99.90;;;;;;4963848;28;20886;-72
2023/06/10 02:47:11;;;;;;;7.78;4.28;;;16.10;99.90;;;;;;4962556;28;20085;-72
2023/06/10 02:49:37;;;;;;;7.95;4.75;;;16.20;99.90;;;;;;4983966;28;20507;-72
2023/06/10 02:52:02;;;;;;;9.68;4.80;;;16.20;99.90;;;;;;4966041;28;20412;-72
2023/06/10 02:54:28;;;;;;;10.77;4.78;;;16.10;99.90;;;;;;4967615;28;20046;-72
2023/06/10 02:56:57;;;;;;;7.90;4.50;;;16.10;99.90;;;;;;4966565;28;20046;-72
2023/06/10 02:59:22;;;;;;;8.60;4.28;;;16.10;99.90;;;;;;4964292;28;20528;-72
2023/06/10 03:01:48;;;;;;;7.82;4.60;;;16.00;99.90;;;;;;4960664;28;20050;-71
2023/06/10 03:04:16;;;;;;;8.80;4.35;;;16.10;99.90;;;;;;4935889;28;20412;-71
2023/06/10 03:06:42;;;;;;;9.35;4.35;;;16.00;99.90;;;;;;4961497;28;20210;-71
2023/06/10 03:09:07;;;;;;;11.52;5.10;;;16.00;99.90;;;;;;4964509;28;20496;-72
2023/06/10 03:11:33;;;;;;;11.47;4.70;;;16.00;99.90;;;;;;4961610;28;20107;-73
2023/06/10 03:13:59;;;;;;;6.57;4.32;;;16.00;99.90;;;;;;4972758;28;20300;-72
2023/06/10 03:16:25;;;;;;;8.57;4.70;;;15.90;99.90;;;;;;4977257;28;20619;-72
2023/06/10 03:18:52;;;;;;;12.60;5.15;;;15.90;99.90;;;;;;4974902;28;20043;-72
2023/06/10 03:21:17;;;;;;;7.20;4.75;;;15.90;99.90;;;;;;4977512;28;20042;-73
2023/06/10 03:23:43;;;;;;;8.95;4.10;;;15.80;99.90;;;;;;4977078;28;20286;-72
2023/06/10 03:26:09;;;;;;;10.73;4.35;;;15.80;99.90;;;;;;4974513;28;20050;-72
2023/06/10 03:28:35;;;;;;;8.00;4.03;;;15.80;99.90;;;;;;4966720;28;20042;-72
2023/06/10 03:31:01;;;;;;;9.35;4.05;;;15.80;99.90;;;;;;4973931;28;20046;-72
2023/06/10 03:33:27;;;;;;;6.65;3.47;;;15.80;99.90;;;;;;4957019;28;20470;-73
2023/06/10 03:35:52;;;;;;;9.27;4.18;;;15.70;99.90;;;;;;4982631;28;20066;-72
2023/06/10 03:38:18;;;;;;;7.40;3.63;;;15.70;99.90;;;;;;4950238;28;20046;-72
2023/06/10 03:40:44;;;;;;;8.13;3.67;;;15.70;99.90;;;;;;4961219;28;20050;-72
2023/06/10 03:43:09;;;;;;;7.93;3.95;;;15.70;99.90;;;;;;4977043;28;20089;-72
2023/06/10 03:45:36;;;;;;;6.88;3.85;;;15.70;99.90;;;;;;4981900;28;20054;-72
2023/06/10 03:48:03;;;;;;;7.15;3.55;;;15.70;99.90;;;;;;4993513;28;20062;-73
2023/06/10 03:50:29;;;;;;;10.20;4.22;;;15.70;99.90;;;;;;4961533;28;20528;-72
2023/06/10 03:52:55;;;;;;;8.18;3.40;;;15.70;99.90;;;;;;4981856;28;20065;-72
2023/06/10 03:55:21;;;;;;;6.28;3.15;;;15.60;99.90;;;;;;4973713;28;20053;-72
2023/06/10 03:57:48;;;;;;;6.63;3.58;;;15.60;99.90;;;;;;4962700;28;20254;-72
2023/06/10 04:00:15;;;;;;;7.28;2.95;;;15.70;99.90;;;;;;4962183;28;20038;-72
2023/06/10 04:02:49;;;;;;;7.53;3.63;;;15.60;99.90;;;;;;4962809;28;20042;-73
2023/06/10 04:05:16;;;;;;;7.30;3.40;;;15.60;99.90;;;;;;4965299;28;20050;-72
2023/06/10 04:07:42;;;;;;;6.43;2.90;;;15.60;99.90;;;;;;4976464;28;20385;-72
2023/06/10 04:10:09;;;;;;;5.72;3.33;;;15.60;99.90;;;;;;4957807;28;20134;-72
2023/06/10 04:12:36;;;;;;;8.27;3.53;;;15.60;99.90;;;;;;4962547;28;20122;-73
2023/06/10 04:15:02;;;;;;;6.07;3.00;;;15.60;99.90;;;;;;4970259;28;20484;-73
2023/06/10 04:17:28;;;;;;;7.85;3.10;;;15.60;99.90;;;;;;4963252;28;20484;-72
2023/06/10 04:19:54;;;;;;;6.07;3.05;;;15.60;99.90;;;;;;4977106;28;20097;-73
2023/06/10 04:22:20;;;;;;;;;;;15.60;99.90;;;;;;4961361;28;20046;-69
2023/06/10 04:24:46;;;;;;;5.22;2.60;;;15.60;99.90;;;;;;4976865;28;20292;-71
2023/06/10 04:27:11;;;;;;;6.03;3.17;;;15.60;99.90;;;;;;4969750;28;20046;-71
2023/06/10 04:29:37;;;;;;;7.75;3.33;;;15.60;99.90;;;;;;4972162;28;20477;-71
2023/06/10 04:32:05;;;;;;;6.10;3.42;;;15.60;99.90;;;;;;4978816;28;20058;-71
2023/06/10 04:34:34;;;;;;;8.32;3.67;;;15.60;99.90;;;;;;4962365;28;20043;-71
2023/06/10 04:37:00;;;;;;;8.27;3.22;;;15.60;99.90;;;;;;4958956;28;20090;-71
2023/06/10 04:39:26;;;;;;;10.60;3.40;;;15.70;99.90;;;;;;4963923;28;20050;-70
2023/06/10 04:41:51;;;;;;;6.60;2.88;;;15.60;99.90;;;;;;4960927;28;20527;-70
2023/06/10 04:44:17;;;;;;;6.35;3.33;;;15.60;99.90;;;;;;4969040;28;20046;-70
2023/06/10 04:46:43;;;;;;;9.25;3.63;;;15.60;99.90;;;;;;4962463;28;20146;-70
2023/06/10 04:49:08;;;;;;;8.10;3.05;;;15.60;99.90;;;;;;4982192;28;20045;-71
2023/06/10 04:51:34;;;;;;;8.05;3.15;;;15.70;99.90;;;;;;4961788;28;20227;-71
2023/06/10 04:54:03;;;;;;;9.50;3.80;;;15.70;99.90;;;;;;4980232;28;20392;-71
2023/06/10 04:56:30;;;;;;;11.68;3.88;;;15.80;99.90;;;;;;4980898;28;20117;-71
2023/06/10 04:58:57;;;;;;;7.10;3.40;;;15.80;99.90;;;;;;4950185;28;20569;-71
2023/06/10 05:01:23;;;;;;;;;;;15.80;99.90;;;;;;4978453;28;20141;-70
2023/06/10 05:03:48;;;;;;;8.07;3.58;;;15.80;99.90;;;;;;4973377;28;20095;-70
2023/06/10 05:06:14;;;;;;;9.38;4.10;;;15.80;99.90;;;;;;4985281;28;20503;-72
2023/06/10 05:08:40;;;;;;;8.18;3.85;;;15.80;99.90;;;;;;4966932;28;20066;-72
2023/06/10 05:11:06;;;;;;;10.38;3.85;;;15.90;99.90;;;;;;4983660;28;20035;-71
2023/06/10 05:13:32;;;;;;;10.88;3.80;;;15.90;99.90;;;;;;4956491;28;20050;-71
2023/06/10 05:16:01;;;;;;;6.63;3.35;;;16.00;99.90;;;;;;4966854;28;20403;-72
2023/06/10 05:18:29;;;;;;;11.57;4.75;;;16.00;99.90;;;;;;4966771;28;20242;-71
2023/06/10 05:20:55;;;;;;;6.97;3.78;;;16.00;99.90;;;;;;4965108;28;20221;-71
2023/06/10 05:23:23;;;;;;;11.02;3.35;;;16.10;99.90;;;;;;4964362;28;20455;-71
2023/06/10 05:25:49;;;;;;;5.80;2.72;;;16.10;99.90;;;;;;4980981;28;20042;-72
2023/06/10 05:28:15;;;;;;;9.23;4.28;;;16.10;99.90;;;;;;4964235;28;20093;-71
2023/06/10 05:30:40;;;;;;;9.65;3.45;;;16.20;99.90;;;;;;4964827;28;20229;-72
2023/06/10 05:33:06;;;;;;;6.95;3.83;;;16.20;99.90;;;;;;4963395;28;20060;-71
2023/06/10 05:35:32;;;;;;;11.45;3.28;;;16.20;99.90;;;;;;4964099;28;20046;-71
2023/06/10 05:37:57;;;;;;;6.80;3.35;;;16.20;99.90;;;;;;4966722;28;20050;-71
2023/06/10 05:40:31;;;;;;;9.00;3.42;;;16.40;99.90;;;;;;4981967;28;20047;-72
2023/06/10 05:42:56;;;;;;;5.65;2.85;;;16.40;99.90;;;;;;4962068;28;20108;-71
2023/06/10 05:45:22;;;;;;;9.93;3.20;;;16.40;99.90;;;;;;4981453;28;20046;-71
2023/06/10 05:47:47;;;;;;;7.65;3.35;;;16.50;99.90;;;;;;4967998;28;20050;-71
2023/06/10 05:50:13;;;;;;;9.17;3.00;;;16.50;99.90;;;;;;4963374;28;20576;-72
2023/06/10 05:52:41;;;;;;;8.00;4.00;;;16.60;99.90;;;;;;4980535;28;20276;-71
2023/06/10 05:55:07;;;;;;;6.75;3.30;;;16.60;99.90;;;;;;4963629;28;20104;-71
2023/06/10 05:57:34;;;;;;;8.15;3.33;;;16.60;99.90;;;;;;4980487;28;20400;-71
2023/06/10 05:59:59;;;;;;;9.98;3.45;;;16.70;99.90;;;;;;4981035;28;20398;-71
2023/06/10 06:02:25;;;;;;;7.15;3.42;;;16.70;99.90;;;;;;4964873;28;20035;-72
2023/06/10 06:04:50;;;;;;;7.05;3.47;;;16.80;99.90;;;;;;4964257;28;20042;-71
2023/06/10 06:07:16;;;;;;;8.45;3.65;;;16.80;99.90;;;;;;4981030;28;20077;-71
2023/06/10 06:09:42;;;;;;;7.85;3.47;;;16.90;99.90;;;;;;4980395;28;20069;-72
2023/06/10 06:12:08;;;;;;;7.20;3.03;;;16.90;99.90;;;;;;4967570;28;20456;-71
2023/06/10 06:14:40;;;;;;;7.40;3.40;;;17.00;99.90;;;;;;4981542;28;20594;-71
2023/06/10 06:17:06;;;;;;;5.28;3.03;;;17.00;99.90;;;;;;4954682;28;20519;-71
2023/06/10 06:19:32;;;;;;;;;;;17.10;99.90;;;;;;4956946;28;20520;-71
2023/06/10 06:21:57;;;;;;;7.97;3.28;;;17.10;99.90;;;;;;4962665;28;19986;-70
2023/06/10 06:24:23;;;;;;;8.48;3.00;;;17.20;99.90;;;;;;4973645;28;20042;-71
2023/06/10 06:29:16;;;;;;;11.30;3.38;;;17.20;99.90;;;;;;4984190;28;20135;-70
2023/06/10 06:31:44;;;;;;;5.80;3.08;;;17.30;99.90;;;;;;4984622;28;20078;-70
2023/06/10 06:34:10;;;;;;;8.07;3.47;;;17.30;99.90;;;;;;4954667;28;20038;-70
2023/06/10 06:36:35;;;;;;;7.88;2.75;;;17.50;99.90;;;;;;4965222;28;20085;-71
2023/06/10 06:39:01;;;;;;;8.57;3.13;;;17.50;99.90;;;;;;4964174;28;20134;-70
2023/06/10 06:41:27;;;;;;;5.47;2.95;;;17.50;99.90;;;;;;4966248;28;20038;-71
2023/06/10 06:43:54;;;;;;;;;;;17.60;99.90;;;;;;4966678;28;20270;-71
2023/06/10 06:46:19;;;;;;;6.60;3.22;;;17.70;99.90;;;;;;4983030;28;19918;-71
2023/06/10 06:48:45;;;;;;;6.90;3.00;;;17.70;99.90;;;;;;4965599;28;20047;-70
2023/06/10 06:51:10;;;;;;;9.05;3.25;;;17.80;99.90;;;;;;4965793;28;20468;-70
2023/06/10 06:53:36;;;;;;;9.00;3.38;;;17.80;99.90;;;;;;4967948;28;20039;-71
2023/06/10 06:56:02;;;;;;;5.70;3.10;;;17.90;99.90;;;;;;4952610;28;20035;-71
2023/06/10 06:58:28;;;;;;;8.95;3.58;;;17.90;99.90;;;;;;4961427;28;20043;-71
2023/06/10 07:00:54;;;;;;;5.45;3.80;;;18.00;99.90;;;;;;4970129;28;20469;-71
2023/06/10 07:03:19;;;;;;;7.43;3.50;;;18.10;99.90;;;;;;4968170;28;20038;-71
2023/06/10 07:05:48;;;;;;;7.63;3.35;;;18.10;99.90;;;;;;4966075;28;20038;-71
2023/06/10 07:08:13;;;;;;;12.10;3.22;;;18.20;99.90;;;;;;4967507;28;20069;-71
2023/06/10 07:10:39;;;;;;;8.90;3.08;;;18.20;99.90;;;;;;4952322;28;20050;-71
2023/06/10 07:13:05;;;;;;;6.75;2.90;;;18.30;99.90;;;;;;4952062;28;20055;-71
2023/06/10 07:15:30;;;;;;;7.45;3.00;;;18.40;99.90;;;;;;4965257;28;20489;-71
2023/06/10 07:17:56;;;;;;;11.38;3.75;;;18.40;99.90;;;;;;4966968;28;20054;-71
2023/06/10 07:20:21;;;;;;;9.00;3.25;;;18.50;99.90;;;;;;4967678;28;20078;-71
2023/06/10 07:22:47;;;;;;;6.18;2.80;;;18.60;99.90;;;;;;4965992;28;20042;-71
2023/06/10 07:25:13;;;;;;;5.63;3.33;;;18.60;99.90;;;;;;4965712;28;20051;-71
2023/06/10 07:27:38;;;;;;;5.53;2.95;;;18.70;99.90;;;;;;4966433;28;20043;-71
2023/06/10 07:30:07;;;;;;;9.02;3.03;;;18.70;99.90;;;;;;4966393;28;20259;-70
2023/06/10 07:32:33;;;;;;;4.95;3.00;;;18.80;99.90;;;;;;4963082;28;20046;-71
2023/06/10 07:34:59;;;;;;;7.13;2.90;;;18.90;99.90;;;;;;4962274;28;20121;-71
2023/06/10 07:37:25;;;;;;;7.85;3.05;;;19.00;99.90;;;;;;4962358;28;20145;-71
2023/06/10 07:39:50;;;;;;;8.57;3.38;;;19.00;99.90;;;;;;4961289;28;20108;-71
2023/06/10 07:42:16;;;;;;;8.02;2.75;;;19.10;99.90;;;;;;4978338;28;20065;-71
2023/06/10 07:44:42;;;;;;;8.75;3.03;;;19.20;99.90;;;;;;4965719;28;20460;-71
2023/06/10 07:47:07;;;;;;;6.43;3.33;;;19.30;99.90;;;;;;4961343;28;20058;-70
2023/06/10 07:49:33;;;;;;;6.05;2.97;;;19.30;99.90;;;;;;4960377;28;20409;-71
2023/06/10 07:51:59;;;;;;;11.98;3.28;;;19.40;99.90;;;;;;4965554;28;20243;-69
2023/06/10 07:54:24;;;;;;;8.38;3.10;;;19.40;99.90;;;;;;4954663;28;20038;-68
2023/06/10 07:56:52;;;;;;;8.18;3.30;;;19.50;99.90;;;;;;4963779;28;20043;-68
2023/06/10 07:59:18;;;;;;;5.75;2.45;;;19.60;99.90;;;;;;4964432;28;20331;-68
2023/06/10 08:01:43;;;;;;;6.03;2.63;;;19.70;99.90;;;;;;4964616;28;20042;-69
2023/06/10 08:04:09;;;;;;;7.63;2.95;;;19.80;99.90;;;;;;4962768;28;20042;-69
2023/06/10 08:06:36;;;;;;;8.20;3.03;;;19.80;99.90;;;;;;4964477;28;20138;-68
2023/06/10 08:09:02;;;;;;;9.50;2.47;;;19.90;99.90;;;;;;4964851;28;20105;-68
2023/06/10 08:11:29;;;;;;;;;;;20.00;99.90;;;;;;4980361;28;20053;-67
2023/06/10 08:13:55;;;;;;;11.13;2.65;;;20.00;99.90;;;;;;4965161;28;20945;-68
2023/06/10 08:16:20;;;;;;;6.03;2.67;;;20.10;99.90;;;;;;4947915;28;20035;-68
2023/06/10 08:18:46;;;;;;;9.73;2.78;;;20.20;99.90;;;;;;4963540;28;20050;-68
2023/06/10 08:21:12;;;;;;;5.97;2.75;;;20.30;99.90;;;;;;4966574;28;20047;-68
2023/06/10 08:23:37;;;;;;;7.78;2.67;;;20.40;99.90;;;;;;4964952;28;20121;-68
2023/06/10 08:26:03;;;;;;;4.53;2.40;;;20.40;99.90;;;;;;4965435;28;20093;-68
2023/06/10 08:28:29;;;;;;;6.65;2.42;;;20.50;99.90;;;;;;4965478;28;20371;-68
2023/06/10 08:30:54;;;;;;;6.32;3.15;;;20.50;99.90;;;;;;4961513;28;20046;-68
2023/06/10 08:33:20;;;;;;;3.55;2.30;;;20.60;99.90;;;;;;4964746;28;20130;-68
2023/06/10 08:35:45;;;;;;;7.25;2.38;;;20.70;99.90;;;;;;4964532;28;20043;-68
2023/06/10 08:38:11;;;;;;;4.95;2.55;;;20.80;99.90;;;;;;4959699;28;20125;-68
2023/06/10 08:40:37;;;;;;;4.00;2.22;;;20.80;99.90;;;;;;4960092;28;20043;-68
2023/06/10 08:43:03;;;;;;;5.10;2.58;;;20.90;99.90;;;;;;4964091;28;20050;-68
2023/06/10 08:45:35;;;;;;;9.18;2.90;;;21.00;99.90;;;;;;4962338;28;20070;-68
2023/06/10 08:48:06;;;;;;;7.82;3.55;;;21.10;99.90;;;;;;4962958;28;20039;-69
2023/06/10 08:50:39;;;;;;;6.68;3.20;;;21.20;99.90;;;;;;4955900;28;20062;-69
2023/06/10 08:53:06;;;;;;;7.47;3.20;;;21.30;99.90;;;;;;4961717;28;20050;-69
2023/06/10 08:55:35;;;;;;;5.35;2.65;;;21.40;99.90;;;;;;4961240;28;20126;-68
2023/06/10 08:58:01;;;;;;;9.80;2.70;;;21.50;99.90;;;;;;4979410;28;20113;-67
2023/06/10 09:00:27;;;;;;;;;;;21.60;99.90;;;;;;4947291;28;20129;-68
2023/06/10 09:02:53;;;;;;;4.97;2.28;;;21.70;99.90;;;;;;4959092;28;19918;-68
2023/06/10 09:05:19;;;;;;;4.70;2.22;;;21.80;99.90;;;;;;4957323;28;20039;-67
2023/06/10 09:07:47;;;;;;;9.88;3.33;;;21.90;99.90;;;;;;4962245;28;20607;-68
2023/06/10 09:10:13;;;;;;;5.70;2.80;;;22.10;99.90;;;;;;4963843;28;20043;-68
2023/06/10 09:12:39;;;;;;;;;;;22.20;99.90;;;;;;4965467;28;20049;-68
2023/06/10 09:15:06;;;;;;;3.72;2.20;;;22.20;99.90;;;;;;4978224;28;19918;-67
2023/06/10 09:17:32;;;;;;;4.40;2.63;;;22.30;99.90;;;;;;4966128;28;20471;-67
2023/06/10 09:19:59;;;;;;;;;;;22.40;99.90;;;;;;4967589;28;20053;-68
2023/06/10 09:22:26;;;;;;;9.05;2.42;;;22.50;99.90;;;;;;4962460;28;19945;-68
2023/06/10 09:25:03;;;;;;;5.47;2.30;;;22.70;99.90;;;;;;4967487;28;20063;-68
2023/06/10 09:27:31;;;;;;;5.18;2.38;;;22.70;99.90;;;;;;4966258;28;20653;-68
2023/06/10 09:29:59;;;;;;;7.25;2.97;;;22.90;99.90;;;;;;4966298;28;20051;-68
2023/06/10 09:32:27;;;;;;;7.43;2.45;;;23.00;99.90;;;;;;4966254;28;20565;-68
2023/06/10 09:34:55;;;;;;;4.90;2.63;;;23.10;99.90;;;;;;4964575;28;20137;-68
2023/06/10 09:37:22;;;;;;;5.07;2.58;;;23.20;99.90;;;;;;4982377;28;20101;-67
2023/06/10 09:40:08;;;;;;;6.35;2.60;;;23.30;99.90;;;;;;4968429;28;20464;-68
2023/06/10 09:42:35;;;;;;;5.50;2.42;;;23.40;99.90;;;;;;4968618;28;20560;-69
2023/06/10 09:45:05;;;;;;;4.10;2.20;;;23.50;99.90;;;;;;4961394;28;20106;-67
2023/06/10 09:47:30;;;;;;;8.98;2.55;;;23.60;99.90;;;;;;4969525;28;20039;-67
2023/06/10 09:49:56;;;;;;;;;;;23.70;99.90;;;;;;4966559;28;20133;-67
2023/06/10 09:52:26;;;;;;;6.13;2.25;;;23.70;98.90;;;;;;4967253;28;19948;-67
2023/06/10 09:54:53;;;;;;;6.18;2.17;;;23.80;99.90;;;;;;4967865;28;20047;-67
2023/06/10 09:57:19;;;;;;;6.95;2.17;;;23.90;99.30;;;;;;4969290;28;20070;-67
2023/06/10 09:59:45;;;;;;;4.78;2.58;;;24.00;98.60;;;;;;4966753;28;20296;-67
2023/06/10 10:02:18;;;;;;;5.38;2.10;;;24.10;98.50;;;;;;4971069;28;20409;-67
2023/06/10 10:04:50;;;;;;;3.97;2.08;;;24.10;98.10;;;;;;4967127;28;20516;-67
2023/06/10 10:07:15;;;;;;;5.68;2.55;;;24.20;97.20;;;;;;4967245;28;20042;-67
2023/06/10 10:09:44;;;;;;;4.57;2.40;;;24.30;96.40;;;;;;4966004;28;20448;-67
2023/06/10 10:12:11;;;;;;;7.55;3.25;;;24.40;96.30;;;;;;4956564;28;20396;-67
2023/06/10 10:14:38;;;;;;;4.28;2.08;;;24.50;96.30;;;;;;4968684;28;20042;-67
2023/06/10 10:17:10;;;;;;;9.27;5.47;;;24.50;96.40;;;;;;4967906;28;20045;-67
2023/06/10 10:19:50;;;;;;;5.50;3.95;;;24.60;96.20;;;;;;4966274;28;20054;-67
2023/06/10 10:22:21;;;;;;;7.07;3.30;;;24.80;96.20;;;;;;4964472;28;20035;-67
2023/06/10 10:24:51;;;;;;;4.72;2.03;;;24.90;95.70;;;;;;4960722;28;20052;-68
2023/06/10 10:27:59;;;;;;;5.20;3.60;;;24.90;94.90;;;;;;4967940;28;20130;-68
2023/06/10 10:30:26;;;;;;;5.28;3.13;;;25.00;93.00;;;;;;4968989;28;20031;-68
2023/06/10 10:33:04;;;;;;;3.85;2.15;;;25.10;93.20;;;;;;4949561;28;20046;-69
2023/06/10 10:35:32;;;;;;;4.00;2.20;;;25.10;92.50;;;;;;4969498;28;20046;-68
2023/06/10 10:37:58;;;;;;;7.63;3.53;;;25.20;91.90;;;;;;4965842;28;20046;-68
2023/06/10 10:40:25;;;;;;;3.78;2.47;;;25.30;91.40;;;;;;4972836;28;20440;-68
2023/06/10 10:42:51;;;;;;;4.20;2.33;;;25.30;91.30;;;;;;4965917;28;20548;-68
2023/06/10 10:45:19;;;;;;;5.55;3.35;;;25.40;91.10;;;;;;4965897;28;20417;-68
2023/06/10 10:47:46;;;;;;;8.63;3.40;;;25.40;91.60;;;;;;4968642;28;20042;-68
2023/06/10 10:50:16;;;;;;;4.78;2.72;;;25.50;91.80;;;;;;4967790;28;20138;-68
2023/06/10 10:52:59;;;;;;;5.05;2.45;;;25.70;91.80;;;;;;4965086;28;20098;-68
2023/06/10 10:55:27;;;;;;;5.40;2.63;;;25.80;91.30;;;;;;4961469;28;20485;-68
2023/06/10 10:58:02;;;;;;;7.22;4.10;;;25.90;91.30;;;;;;4983668;28;20695;-68
2023/06/10 11:00:48;;;;;;;3.28;2.28;;;25.90;90.80;;;;;;4967440;28;20469;-68
2023/06/10 11:03:16;;;;;;;3.50;2.23;;;26.10;90.60;;;;;;4964795;28;20047;-68
2023/06/10 11:05:49;;;;;;;3.40;2.03;;;26.10;90.10;;;;;;4959213;28;20073;-68
2023/06/10 11:08:15;;;;;;;3.78;1.98;;;26.10;89.50;;;;;;4968818;28;20134;-68
2023/06/10 11:10:52;;;;;;;7.85;2.30;;;26.20;88.10;;;;;;4967135;28;20042;-68
2023/06/10 11:13:22;;;;;;;3.80;2.00;;;26.20;87.50;;;;;;4971530;28;20038;-68
2023/06/10 11:15:50;;;;;;;5.43;2.25;;;26.30;88.00;;;;;;4967730;28;20101;-68
2023/06/10 11:18:25;;;;;;;5.30;2.05;;;26.40;88.20;;;;;;4974320;28;20139;-68
2023/06/10 11:21:02;;;;;;;4.43;2.08;;;26.50;88.30;;;;;;4961288;28;20124;-68
2023/06/10 11:23:27;;;;;;;4.65;1.70;;;26.50;87.70;;;;;;4962723;28;20039;-68
2023/06/10 11:26:26;;;;;;;4.00;2.17;;;26.60;88.10;;;;;;4967592;28;20065;-68
2023/06/10 11:28:58;;;;;;;5.10;2.10;;;26.80;88.00;;;;;;4975692;28;20520;-68
2023/06/10 11:31:27;;;;;;;4.38;1.90;;;26.80;87.20;;;;;;4960279;28;20132;-68
2023/06/10 11:33:57;;;;;;;4.53;1.98;;;26.90;86.20;;;;;;4962770;28;20082;-68
2023/06/10 11:36:24;;;;;;;3.42;1.90;;;27.00;85.90;;;;;;4959832;28;20042;-68
2023/06/10 11:38:53;;;;;;;4.75;1.70;;;27.10;85.80;;;;;;4964321;28;20185;-68
2023/06/10 11:41:20;;;;;;;5.30;1.73;;;27.20;83.50;;;;;;4959191;28;20053;-68
2023/06/10 11:43:46;;;;;;;4.63;1.65;;;27.20;80.80;;;;;;4956709;28;20055;-68
2023/06/10 11:46:15;;;;;;;2.75;1.70;;;27.30;79.70;;;;;;4964376;28;20054;-68
2023/06/10 11:48:52;;;;;;;4.35;1.83;;;27.40;78.20;;;;;;4962748;28;20449;-68
2023/06/10 11:51:17;;;;;;;4.72;1.80;;;27.50;77.60;;;;;;4963808;28;20456;-68
2023/06/10 11:53:47;;;;;;;4.18;1.85;;;27.50;77.70;;;;;;4971679;28;20042;-69
2023/06/10 11:56:13;;;;;;;2.70;1.58;;;27.60;78.60;;;;;;4962369;28;20039;-68
2023/06/10 11:58:45;;;;;;;4.70;2.08;;;27.70;80.10;;;;;;4961328;28;20043;-68
2023/06/10 12:01:10;;;;;;;2.70;1.58;;;27.70;79.10;;;;;;4964244;28;20174;-68
2023/06/10 12:03:39;;;;;;;4.38;2.03;;;27.80;79.20;;;;;;4956609;28;20509;-68
2023/06/10 12:06:06;;;;;;;6.32;1.90;;;27.90;78.30;;;;;;4958807;28;20053;-68
2023/06/10 12:08:33;;;;;;;3.72;2.17;;;28.00;79.00;;;;;;4962572;28;20035;-68
2023/06/10 12:10:59;;;;;;;4.43;2.15;;;28.10;75.90;;;;;;4959790;28;20512;-68
2023/06/10 12:13:27;;;;;;;6.32;2.50;;;28.10;72.60;;;;;;4964966;28;20073;-68
2023/06/10 12:15:52;;;;;;;4.60;1.88;;;28.00;73.10;;;;;;4964566;28;20537;-68
2023/06/10 12:18:26;;;;;;;5.40;2.05;;;28.00;73.80;;;;;;4962204;28;20043;-68
2023/06/10 12:20:52;;;;;;;5.15;1.92;;;28.10;73.80;;;;;;4965061;28;20133;-68
2023/06/10 12:23:18;;;;;;;4.55;1.83;;;28.20;73.20;;;;;;4964852;28;20145;-68
2023/06/10 12:25:55;;;;;;;2.83;1.65;;;28.20;71.70;;;;;;4958804;28;20107;-68
2023/06/10 12:28:26;;;;;;;4.88;2.03;;;28.30;72.00;;;;;;4978135;28;20100;-68
2023/06/10 12:31:05;;;;;;;6.68;2.17;;;28.40;71.10;;;;;;4966118;28;20051;-68
2023/06/10 12:33:31;;;;;;;7.20;2.63;;;28.40;71.00;;;;;;4967974;28;20303;-68
2023/06/10 12:35:56;;;;;;;6.50;1.83;;;28.50;71.50;;;;;;4971830;28;20121;-68
2023/06/10 12:38:24;;;;;;;3.60;1.83;;;28.60;72.00;;;;;;4952258;28;20051;-68
2023/06/10 12:40:53;;;;;;;3.53;1.90;;;28.70;71.60;;;;;;4965374;28;20046;-68
2023/06/10 12:43:23;;;;;;;3.58;2.08;;;28.90;70.80;;;;;;4964519;28;20077;-68
2023/06/10 12:45:50;;;;;;;3.80;1.90;;;29.00;70.50;;;;;;4967235;28;20122;-68
2023/06/10 12:48:23;;;;;;;4.78;1.92;;;28.90;70.30;;;;;;4963234;28;20045;-68
2023/06/10 12:50:57;;;;;;;4.15;1.88;;;29.00;70.30;;;;;;4960826;28;20618;-68
2023/06/10 12:53:24;;;;;;;4.53;2.42;;;29.10;69.20;;;;;;4964510;28;20043;-68